Time;durP1;ratioP1;P1;durP2;ratioP2;P2;SDS_P1;SDS_P2;PMS_P1;PMS_P2;Temp;Humidity;BMP_temperature;BMP_pressure;BME280_temperature;BME280_humidity;BME280_pressure;Samples;Min_cycle;Max_cycle;Signal;HPM_P1;HPM_P2
2022/11/08 00:01:33;;;;;;;18.30;9.20;;;5.10;99.90;;;;;;5020262;28;20048;-65
2022/11/08 00:04:09;;;;;;;15.00;8.52;;;4.90;99.90;;;;;;5028204;28;20029;-67
2022/11/08 00:14:49;;;;;;;19.13;9.30;;;4.90;99.90;;;;;;5039362;28;20039;-65
2022/11/08 00:17:17;;;;;;;20.35;9.45;;;5.10;99.90;;;;;;5041467;28;20385;-67
2022/11/08 00:19:43;;;;;;;20.17;9.57;;;4.90;99.90;;;;;;5028255;28;20048;-65
2022/11/08 00:22:12;;;;;;;15.77;8.10;;;5.00;99.90;;;;;;5032312;28;20750;-66
2022/11/08 00:24:38;;;;;;;18.42;9.38;;;4.80;99.90;;;;;;5049191;28;20033;-69
2022/11/08 00:27:06;;;;;;;15.15;8.43;;;5.00;99.90;;;;;;5048098;28;20083;-66
2022/11/08 00:29:36;;;;;;;22.25;9.27;;;4.60;99.90;;;;;;5034119;28;20037;-67
2022/11/08 00:32:03;;;;;;;;;;;4.70;99.90;;;;;;5030600;28;20071;-65
2022/11/08 00:34:28;;;;;;;19.70;8.07;;;4.70;99.90;;;;;;5032393;28;20725;-68
2022/11/08 00:36:54;;;;;;;20.45;8.20;;;4.80;99.90;;;;;;5029881;28;20029;-66
2022/11/08 00:39:20;;;;;;;20.65;8.52;;;4.70;99.90;;;;;;5049344;28;20108;-64
2022/11/08 00:41:46;;;;;;;19.85;7.95;;;4.60;99.90;;;;;;5045436;28;20071;-65
2022/11/08 00:44:12;;;;;;;19.80;8.70;;;4.50;99.90;;;;;;5028368;28;20056;-68
2022/11/08 00:46:37;;;;;;;17.20;8.45;;;4.50;99.90;;;;;;5046384;28;20454;-71
2022/11/08 00:49:04;;;;;;;17.60;8.07;;;4.70;99.90;;;;;;5048892;28;20449;-65
2022/11/08 00:51:30;;;;;;;15.77;8.05;;;4.50;99.90;;;;;;5045244;28;20470;-65
2022/11/08 00:53:56;;;;;;;16.58;8.63;;;4.40;99.90;;;;;;5048098;28;20033;-65
2022/11/08 00:56:22;;;;;;;17.85;7.97;;;4.30;99.90;;;;;;5044476;28;20098;-65
2022/11/08 00:58:48;;;;;;;21.75;10.02;;;4.50;99.90;;;;;;5034558;28;20037;-66
2022/11/08 01:01:16;;;;;;;18.73;9.25;;;4.40;99.90;;;;;;5042510;28;20037;-63
2022/11/08 01:03:42;;;;;;;22.83;9.57;;;4.40;99.90;;;;;;5045418;28;20033;-67
2022/11/08 01:06:10;;;;;;;17.45;9.68;;;4.10;99.90;;;;;;5048864;28;20056;-63
2022/11/08 01:08:36;;;;;;;18.63;9.80;;;4.20;99.90;;;;;;5038678;28;20025;-65
2022/11/08 01:11:05;;;;;;;18.45;10.40;;;4.30;99.90;;;;;;5027926;28;20068;-65
2022/11/08 01:13:31;;;;;;;17.55;8.88;;;4.40;99.90;;;;;;5026997;28;20056;-65
2022/11/08 01:15:57;;;;;;;17.35;8.93;;;4.20;99.90;;;;;;5027141;28;20057;-66
2022/11/08 01:18:22;;;;;;;17.92;9.43;;;4.60;99.90;;;;;;5033284;28;20378;-64
2022/11/08 01:20:49;;;;;;;16.88;8.98;;;4.40;99.90;;;;;;5047941;28;20767;-66
2022/11/08 01:23:16;;;;;;;16.38;8.15;;;4.50;99.90;;;;;;5043639;28;20060;-65
2022/11/08 01:25:44;;;;;;;15.75;7.95;;;4.60;99.90;;;;;;5047492;28;20068;-69
2022/11/08 01:28:11;;;;;;;14.50;7.57;;;4.50;99.90;;;;;;5038017;28;20034;-64
2022/11/08 01:30:39;;;;;;;15.85;7.32;;;4.50;99.90;;;;;;5029158;28;20057;-65
2022/11/08 01:33:06;;;;;;;16.25;8.57;;;4.20;99.90;;;;;;5048044;28;20033;-67
2022/11/08 01:35:32;;;;;;;15.93;8.30;;;4.40;99.90;;;;;;5038221;28;20125;-66
2022/11/08 01:37:59;;;;;;;16.48;9.15;;;4.30;99.90;;;;;;5047477;28;20488;-65
2022/11/08 01:40:25;;;;;;;19.08;7.82;;;4.20;99.90;;;;;;5043415;28;20112;-66
2022/11/08 01:42:51;;;;;;;18.13;8.30;;;4.20;99.90;;;;;;5039378;28;20375;-66
2022/11/08 01:45:54;;;;;;;15.48;8.05;;;4.00;99.90;;;;;;5034997;28;20036;-64
2022/11/08 01:48:21;;;;;;;15.18;8.43;;;4.20;99.90;;;;;;5048363;28;20036;-67
2022/11/08 01:50:47;;;;;;;15.45;8.15;;;4.00;99.90;;;;;;5033088;28;20939;-66
2022/11/08 01:53:12;;;;;;;15.30;7.43;;;3.90;99.90;;;;;;5047128;28;20036;-64
2022/11/08 01:55:38;;;;;;;16.13;7.47;;;4.10;99.90;;;;;;5034171;28;20045;-65
2022/11/08 01:58:13;;;;;;;14.15;6.93;;;3.90;99.90;;;;;;5024142;28;20158;-66
2022/11/08 02:00:39;;;;;;;15.75;7.47;;;3.90;99.90;;;;;;5026284;28;20397;-67
2022/11/08 02:03:07;;;;;;;16.35;7.95;;;4.10;99.90;;;;;;5040253;28;20041;-64
2022/11/08 02:05:33;;;;;;;15.80;8.43;;;4.10;99.90;;;;;;5028366;28;20029;-65
2022/11/08 02:08:36;;;;;;;16.45;7.10;;;4.10;99.90;;;;;;5027652;28;20040;-68
2022/11/08 02:11:04;;;;;;;18.83;8.23;;;3.90;99.90;;;;;;5035354;28;20119;-66
2022/11/08 02:13:32;;;;;;;15.90;8.48;;;3.90;99.90;;;;;;5048314;28;20040;-68
2022/11/08 02:15:58;;;;;;;15.25;7.60;;;3.70;99.90;;;;;;5034038;28;20030;-65
2022/11/08 02:18:27;;;;;;;15.30;7.53;;;3.70;99.90;;;;;;5028238;28;20045;-64
2022/11/08 02:21:01;;;;;;;15.90;7.65;;;3.90;99.90;;;;;;5026577;28;20026;-64
2022/11/08 02:23:46;;;;;;;17.65;8.32;;;4.00;99.90;;;;;;5026732;28;20494;-64
2022/11/08 02:26:12;;;;;;;14.90;8.02;;;3.60;99.90;;;;;;5010786;28;20117;-65
2022/11/08 02:28:43;;;;;;;15.73;8.10;;;3.60;99.90;;;;;;5027944;28;20469;-65
2022/11/08 02:31:11;;;;;;;17.23;8.38;;;3.80;99.90;;;;;;5050140;28;20037;-68
2022/11/08 02:33:38;;;;;;;17.08;8.05;;;3.80;99.90;;;;;;5050517;28;20120;-65
2022/11/08 02:36:05;;;;;;;16.15;7.90;;;3.80;99.90;;;;;;5040901;28;20120;-66
2022/11/08 02:38:33;;;;;;;17.38;7.93;;;3.80;99.90;;;;;;5037745;28;20052;-63
2022/11/08 02:40:58;;;;;;;15.68;7.57;;;3.60;99.90;;;;;;5029986;28;20137;-68
2022/11/08 02:43:24;;;;;;;17.67;8.05;;;3.80;99.90;;;;;;5032124;28;20116;-65
2022/11/08 02:45:51;;;;;;;15.65;8.00;;;3.60;99.90;;;;;;5029859;28;20394;-65
2022/11/08 02:48:18;;;;;;;14.40;7.65;;;3.90;99.90;;;;;;5030563;28;20040;-66
2022/11/08 02:50:44;;;;;;;19.33;8.18;;;3.70;99.90;;;;;;5030977;28;20051;-70
2022/11/08 02:53:10;;;;;;;15.98;7.40;;;3.40;99.90;;;;;;5038814;28;20424;-65
2022/11/08 02:55:35;;;;;;;14.63;7.07;;;3.80;99.90;;;;;;5042809;28;20433;-65
2022/11/08 02:58:02;;;;;;;18.42;7.53;;;3.80;99.90;;;;;;5040153;28;20091;-66
2022/11/08 03:00:28;;;;;;;11.40;6.45;;;3.70;99.90;;;;;;5046041;28;20104;-66
2022/11/08 03:02:57;;;;;;;16.27;6.90;;;3.70;99.90;;;;;;5050471;28;20116;-67
2022/11/08 03:05:25;;;;;;;13.13;6.78;;;3.60;99.90;;;;;;5048751;28;20037;-65
2022/11/08 03:07:51;;;;;;;13.70;7.07;;;3.70;99.90;;;;;;5049104;28;20099;-66
2022/11/08 03:10:17;;;;;;;15.88;7.68;;;3.70;99.90;;;;;;5033994;28;20060;-66
2022/11/08 03:12:43;;;;;;;13.80;7.50;;;3.60;99.90;;;;;;5030884;28;20029;-64
2022/11/08 03:15:10;;;;;;;14.65;6.95;;;3.40;99.90;;;;;;5031064;28;20037;-69
2022/11/08 03:17:36;;;;;;;17.38;7.28;;;3.20;99.90;;;;;;5038047;28;20039;-65
2022/11/08 03:20:03;;;;;;;14.32;6.93;;;3.40;99.90;;;;;;5030375;28;20462;-66
2022/11/08 03:22:29;;;;;;;15.80;7.75;;;3.60;99.90;;;;;;5043292;28;20081;-69
2022/11/08 03:24:54;;;;;;;15.05;7.60;;;3.50;99.90;;;;;;5024175;28;20065;-65
2022/11/08 03:27:20;;;;;;;14.80;7.30;;;3.40;99.90;;;;;;5027926;28;20059;-68
2022/11/08 03:29:46;;;;;;;14.05;7.40;;;3.10;99.90;;;;;;5033452;28;20123;-70
2022/11/08 03:32:12;;;;;;;17.48;8.00;;;3.20;99.90;;;;;;5032659;28;20040;-64
2022/11/08 03:34:38;;;;;;;14.30;7.13;;;3.40;99.90;;;;;;5030704;28;20088;-66
2022/11/08 03:37:06;;;;;;;19.73;7.88;;;3.10;99.90;;;;;;5037820;28;20421;-66
2022/11/08 03:39:31;;;;;;;14.52;7.00;;;3.20;99.90;;;;;;5030180;28;20037;-65
2022/11/08 03:42:01;;;;;;;13.48;7.03;;;3.50;99.90;;;;;;5045887;28;20585;-65
2022/11/08 03:44:28;;;;;;;15.82;6.72;;;3.20;99.90;;;;;;5042668;28;20021;-66
2022/11/08 03:46:54;;;;;;;18.08;7.78;;;3.20;99.90;;;;;;5029978;28;20378;-65
2022/11/08 03:49:20;;;;;;;15.25;7.15;;;3.30;99.90;;;;;;5041494;28;20865;-63
2022/11/08 03:51:46;;;;;;;14.23;7.18;;;3.10;99.90;;;;;;5050613;28;20112;-65
2022/11/08 03:54:11;;;;;;;12.60;6.72;;;3.00;99.90;;;;;;5043337;28;20452;-68
2022/11/08 03:56:37;;;;;;;14.60;7.32;;;3.30;99.90;;;;;;5044109;28;20032;-65
2022/11/08 03:59:03;;;;;;;14.20;7.80;;;3.40;99.90;;;;;;5031990;28;20386;-65
2022/11/08 04:01:29;;;;;;;17.77;7.70;;;3.20;99.90;;;;;;5008322;28;20029;-67
2022/11/08 04:03:54;;;;;;;14.40;6.90;;;2.90;99.90;;;;;;5027834;28;20132;-65
2022/11/08 04:06:20;;;;;;;14.75;7.05;;;3.40;99.90;;;;;;5030192;28;20040;-65
2022/11/08 04:08:46;;;;;;;13.73;7.13;;;3.10;99.90;;;;;;5030017;28;20033;-65
2022/11/08 04:16:40;;;;;;;16.27;7.43;;;3.10;99.90;;;;;;5027969;28;20033;-67
2022/11/08 04:21:52;;;;;;;17.35;7.45;;;3.20;99.90;;;;;;5029325;28;20409;-70
2022/11/08 04:24:18;;;;;;;14.50;7.70;;;2.80;99.90;;;;;;5029811;28;20053;-64
2022/11/08 04:26:44;;;;;;;14.00;7.13;;;3.30;99.90;;;;;;5029653;28;20029;-67
2022/11/08 04:29:09;;;;;;;13.85;7.07;;;3.30;99.90;;;;;;5028881;28;20047;-65
2022/11/08 04:31:36;;;;;;;13.38;6.80;;;3.20;99.90;;;;;;5028904;28;20034;-65
2022/11/08 04:34:02;;;;;;;12.30;6.90;;;3.30;99.90;;;;;;5028565;28;20052;-64
2022/11/08 04:36:27;;;;;;;13.98;7.03;;;3.00;99.90;;;;;;5029684;28;20025;-65
2022/11/08 04:38:53;;;;;;;13.50;7.32;;;2.90;99.90;;;;;;5028630;28;20774;-70
2022/11/08 04:41:21;;;;;;;14.57;6.97;;;3.20;99.90;;;;;;5029165;28;20068;-67
2022/11/08 04:43:49;;;;;;;14.05;6.68;;;2.80;99.90;;;;;;5029160;28;20033;-65
2022/11/08 04:46:17;;;;;;;12.13;6.20;;;2.70;99.90;;;;;;5027753;28;20112;-64
2022/11/08 04:48:44;;;;;;;19.63;7.43;;;2.70;99.90;;;;;;5028452;28;20411;-65
2022/11/08 04:51:21;;;;;;;14.32;7.15;;;2.90;99.90;;;;;;5028504;28;20056;-65
2022/11/08 04:53:47;;;;;;;14.27;7.10;;;2.70;99.90;;;;;;5029328;28;20073;-65
2022/11/08 04:56:18;;;;;;;13.88;7.00;;;2.90;99.90;;;;;;5027042;28;20071;-65
2022/11/08 04:58:49;;;;;;;13.80;6.57;;;2.80;99.90;;;;;;5029214;28;20040;-65
2022/11/08 05:01:17;;;;;;;16.17;7.53;;;2.90;99.90;;;;;;5026838;28;20036;-64
2022/11/08 05:03:44;;;;;;;17.42;7.50;;;3.20;99.90;;;;;;5029076;28;20037;-66
2022/11/08 05:06:12;;;;;;;16.92;7.30;;;2.90;99.90;;;;;;5028273;28;20156;-67
2022/11/08 05:08:38;;;;;;;13.13;6.97;;;2.80;99.90;;;;;;5028703;28;20103;-65
2022/11/08 05:11:09;;;;;;;14.93;6.80;;;3.00;99.90;;;;;;5028103;28;20104;-65
2022/11/08 05:13:35;;;;;;;13.43;6.90;;;2.60;99.90;;;;;;5028876;28;20095;-65
2022/11/08 05:16:03;;;;;;;12.40;6.65;;;3.10;99.90;;;;;;5027213;28;20029;-65
2022/11/08 05:18:31;;;;;;;12.68;6.53;;;3.20;99.90;;;;;;5028919;28;20026;-66
2022/11/08 05:23:43;;;;;;;14.40;7.00;;;3.10;99.90;;;;;;5028692;28;20049;-67
2022/11/08 05:26:09;;;;;;;13.50;6.65;;;2.90;99.90;;;;;;5028358;28;20025;-64
2022/11/08 05:28:35;;;;;;;14.07;6.80;;;2.60;99.90;;;;;;5036442;28;20041;-66
2022/11/08 05:31:02;;;;;;;13.18;6.95;;;2.80;99.90;;;;;;5025843;28;20036;-64
2022/11/08 05:33:28;;;;;;;16.85;8.00;;;2.60;99.90;;;;;;5034529;28;20044;-65
2022/11/08 05:35:54;;;;;;;18.13;8.38;;;2.50;99.90;;;;;;5026598;28;20029;-71
2022/11/08 05:38:19;;;;;;;15.95;8.10;;;2.80;99.90;;;;;;5028066;28;20083;-64
2022/11/08 05:40:45;;;;;;;13.20;7.38;;;3.00;99.90;;;;;;5028672;28;20470;-65
2022/11/08 05:43:11;;;;;;;16.30;7.78;;;2.60;99.90;;;;;;5027632;28;20037;-67
2022/11/08 05:45:37;;;;;;;15.45;7.30;;;2.90;99.90;;;;;;5024108;28;20455;-64
2022/11/08 05:48:03;;;;;;;12.95;7.32;;;2.80;99.90;;;;;;5026305;28;20100;-65
2022/11/08 05:50:33;;;;;;;16.08;7.72;;;2.80;99.90;;;;;;5026814;28;20037;-64
2022/11/08 05:52:59;;;;;;;15.37;6.60;;;2.60;99.90;;;;;;5026095;28;20044;-68
2022/11/08 05:55:25;;;;;;;16.55;7.32;;;2.50;99.90;;;;;;5027779;28;20037;-63
2022/11/08 05:57:51;;;;;;;18.33;8.18;;;2.70;99.90;;;;;;5026355;28;20080;-65
2022/11/08 06:00:17;;;;;;;16.85;7.85;;;2.70;99.90;;;;;;5030819;28;20616;-66
2022/11/08 06:02:43;;;;;;;22.58;8.52;;;2.80;99.90;;;;;;5029923;28;20041;-64
2022/11/08 06:05:09;;;;;;;17.48;8.20;;;2.80;99.90;;;;;;5030515;28;20129;-66
2022/11/08 06:07:35;;;;;;;13.00;6.63;;;2.90;99.90;;;;;;5027437;28;20049;-65
2022/11/08 06:10:01;;;;;;;14.07;6.95;;;2.80;99.90;;;;;;5031460;28;20025;-63
2022/11/08 06:12:27;;;;;;;13.85;6.25;;;2.60;99.90;;;;;;5031836;28;20079;-65
2022/11/08 06:14:53;;;;;;;14.38;6.32;;;2.50;99.90;;;;;;5031885;28;20037;-64
2022/11/08 06:17:18;;;;;;;13.43;6.13;;;2.20;99.90;;;;;;5031259;28;20029;-64
2022/11/08 06:19:44;;;;;;;13.30;6.15;;;2.80;99.90;;;;;;5031098;28;20037;-65
2022/11/08 06:22:10;;;;;;;12.43;6.18;;;2.40;99.90;;;;;;5030922;28;20061;-64
2022/11/08 06:24:35;;;;;;;11.35;5.80;;;2.50;99.90;;;;;;5030584;28;20128;-64
2022/11/08 06:27:01;;;;;;;15.20;7.22;;;2.40;99.90;;;;;;5027818;28;20026;-70
2022/11/08 06:29:27;;;;;;;14.85;6.95;;;2.50;99.90;;;;;;5029473;28;20582;-66
2022/11/08 06:31:52;;;;;;;13.73;6.53;;;2.30;99.90;;;;;;5033215;28;20025;-65
2022/11/08 06:34:18;;;;;;;14.75;6.45;;;2.50;99.90;;;;;;5048084;28;20163;-66
2022/11/08 06:36:44;;;;;;;14.15;7.13;;;2.80;99.90;;;;;;5041837;28;20036;-66
2022/11/08 06:39:10;;;;;;;15.15;7.10;;;2.70;99.90;;;;;;5047555;28;20033;-65
2022/11/08 06:41:35;;;;;;;13.48;7.85;;;2.60;99.90;;;;;;5051603;28;20040;-65
2022/11/08 06:44:01;;;;;;;13.40;6.82;;;2.60;99.90;;;;;;5034109;28;20466;-71
2022/11/08 06:46:27;;;;;;;14.32;7.35;;;2.90;99.90;;;;;;5031277;28;20033;-67
2022/11/08 06:48:52;;;;;;;16.23;6.85;;;2.50;99.90;;;;;;5031549;28;20021;-66
2022/11/08 06:51:18;;;;;;;14.32;7.10;;;2.90;99.90;;;;;;5047672;28;20032;-66
2022/11/08 06:53:44;;;;;;;12.23;6.72;;;2.90;99.90;;;;;;5051325;28;20119;-66
2022/11/08 06:56:10;;;;;;;14.32;6.40;;;2.80;99.90;;;;;;5032210;28;20046;-65
2022/11/08 06:58:36;;;;;;;13.02;6.53;;;2.50;99.90;;;;;;5031499;28;20029;-64
2022/11/08 07:01:03;;;;;;;14.20;7.18;;;2.60;99.90;;;;;;5030737;28;20022;-72
2022/11/08 07:03:29;;;;;;;14.60;7.13;;;2.80;99.90;;;;;;5030319;28;20168;-66
2022/11/08 07:05:55;;;;;;;17.23;6.95;;;2.70;99.90;;;;;;5031596;28;20037;-65
2022/11/08 07:08:21;;;;;;;14.52;6.60;;;2.70;99.90;;;;;;5032984;28;20036;-65
2022/11/08 07:10:46;;;;;;;15.93;7.00;;;3.30;99.90;;;;;;5035748;28;20400;-65
2022/11/08 07:13:13;;;;;;;13.75;6.97;;;3.40;99.90;;;;;;5043598;28;20037;-66
2022/11/08 07:15:39;;;;;;;14.07;6.90;;;3.00;99.90;;;;;;5034627;28;20036;-65
2022/11/08 07:18:10;;;;;;;19.88;6.85;;;2.80;99.90;;;;;;5039014;28;20460;-65
2022/11/08 07:20:36;;;;;;;12.30;7.00;;;3.00;99.90;;;;;;5034047;28;20021;-65
2022/11/08 07:23:02;;;;;;;12.43;6.18;;;3.30;99.90;;;;;;5030269;28;20053;-70
2022/11/08 07:25:29;;;;;;;12.38;6.40;;;3.00;99.90;;;;;;5042181;28;20049;-65
2022/11/08 07:27:59;;;;;;;12.63;7.05;;;3.30;99.90;;;;;;5043866;28;20044;-65
2022/11/08 07:30:25;;;;;;;13.00;6.70;;;3.30;99.90;;;;;;5040328;28;20059;-64
2022/11/08 07:32:51;;;;;;;12.85;6.20;;;3.80;99.90;;;;;;5050415;28;20430;-63
2022/11/08 07:35:17;;;;;;;13.40;6.32;;;3.70;99.90;;;;;;5048772;28;20108;-64
2022/11/08 07:37:43;;;;;;;12.55;6.35;;;3.70;99.90;;;;;;5050810;28;20404;-64
2022/11/08 07:40:09;;;;;;;10.82;6.10;;;3.80;99.90;;;;;;5044861;28;20040;-68
2022/11/08 07:42:36;;;;;;;15.18;7.50;;;3.60;99.90;;;;;;5043475;28;20044;-65
2022/11/08 07:45:02;;;;;;;18.73;6.40;;;3.60;99.90;;;;;;5027872;28;20715;-72
2022/11/08 07:47:28;;;;;;;15.48;7.10;;;3.80;99.90;;;;;;5028987;28;20082;-65
2022/11/08 07:49:54;;;;;;;11.63;6.10;;;4.10;99.90;;;;;;5029611;28;20029;-67
2022/11/08 07:52:19;;;;;;;11.90;6.38;;;4.20;99.90;;;;;;5027518;28;20029;-66
2022/11/08 07:54:45;;;;;;;14.38;6.40;;;4.00;99.90;;;;;;5024343;28;20033;-66
2022/11/08 07:57:11;;;;;;;11.23;6.47;;;4.20;99.90;;;;;;5036868;28;20107;-65
2022/11/08 07:59:36;;;;;;;12.20;7.25;;;4.20;99.90;;;;;;5027397;28;20037;-66
2022/11/08 08:02:02;;;;;;;13.25;6.80;;;4.30;99.90;;;;;;5029339;28;20034;-71
2022/11/08 08:04:29;;;;;;;14.35;6.65;;;4.80;99.90;;;;;;5030032;28;20069;-65
2022/11/08 08:06:54;;;;;;;12.25;6.78;;;4.90;99.90;;;;;;5046977;28;20033;-64
2022/11/08 08:09:20;;;;;;;14.25;7.38;;;4.80;99.90;;;;;;5048988;28;20098;-67
2022/11/08 08:11:46;;;;;;;14.60;8.27;;;5.00;99.90;;;;;;5048541;28;20104;-66
2022/11/08 08:14:11;;;;;;;14.55;7.75;;;5.10;99.90;;;;;;5046557;28;20045;-64
2022/11/08 08:16:37;;;;;;;17.98;9.25;;;5.30;99.90;;;;;;5044569;28;20029;-65
2022/11/08 08:19:03;;;;;;;17.77;9.73;;;5.10;99.90;;;;;;5029686;28;20025;-70
2022/11/08 08:21:29;;;;;;;17.55;9.05;;;5.30;99.90;;;;;;5026785;28;20053;-68
2022/11/08 08:23:54;;;;;;;13.85;7.65;;;5.50;99.90;;;;;;5028957;28;20471;-65
2022/11/08 08:26:20;;;;;;;14.60;7.97;;;5.60;99.90;;;;;;5026857;28;20033;-68
2022/11/08 08:28:46;;;;;;;14.05;8.00;;;5.90;99.90;;;;;;5029663;28;20056;-66
2022/11/08 08:31:12;;;;;;;15.75;7.97;;;6.00;99.90;;;;;;5030499;28;20033;-64
2022/11/08 08:33:37;;;;;;;18.23;8.15;;;6.40;99.90;;;;;;5029662;28;20045;-63
2022/11/08 08:36:04;;;;;;;13.70;7.63;;;6.30;99.90;;;;;;5027992;28;20398;-68
2022/11/08 08:38:30;;;;;;;13.45;7.43;;;6.40;99.90;;;;;;5028956;28;20037;-66
2022/11/08 08:40:57;;;;;;;12.30;6.63;;;6.40;99.90;;;;;;5028494;28;20029;-63
2022/11/08 08:43:23;;;;;;;13.23;7.47;;;6.30;99.90;;;;;;5028533;28;20466;-65
2022/11/08 08:45:48;;;;;;;13.57;7.70;;;6.40;99.90;;;;;;5039724;28;20044;-66
2022/11/08 08:48:14;;;;;;;16.65;7.35;;;6.60;99.90;;;;;;5028599;28;20033;-66
2022/11/08 08:50:40;;;;;;;13.23;7.28;;;6.60;99.90;;;;;;5033489;28;20537;-66
2022/11/08 08:53:06;;;;;;;13.35;7.85;;;6.80;99.90;;;;;;5041127;28;20108;-72
2022/11/08 08:55:34;;;;;;;14.80;8.25;;;6.80;99.90;;;;;;5037046;28;20064;-67
2022/11/08 08:58:00;;;;;;;14.68;8.02;;;7.00;99.90;;;;;;5028177;28;20030;-65
2022/11/08 09:00:25;;;;;;;41.92;15.90;;;7.10;99.90;;;;;;5024308;28;20094;-66
2022/11/08 09:02:51;;;;;;;17.25;9.02;;;7.20;99.90;;;;;;5025674;28;20037;-65
2022/11/08 09:05:17;;;;;;;19.98;9.02;;;7.50;99.90;;;;;;5028002;28;20065;-68
2022/11/08 09:07:43;;;;;;;15.35;8.68;;;7.40;99.90;;;;;;5027262;28;20040;-64
2022/11/08 09:10:10;;;;;;;21.77;12.13;;;7.60;99.90;;;;;;5027643;28;20033;-72
2022/11/08 09:12:36;;;;;;;21.27;10.25;;;7.80;99.90;;;;;;5027268;28;20033;-65
2022/11/08 09:15:03;;;;;;;22.45;12.25;;;8.30;99.90;;;;;;5026265;28;20040;-66
2022/11/08 09:17:29;;;;;;;24.35;14.10;;;8.70;99.90;;;;;;5023707;28;20086;-68
2022/11/08 09:19:55;;;;;;;17.70;9.10;;;8.90;99.90;;;;;;5027765;28;20051;-65
2022/11/08 09:22:21;;;;;;;22.80;9.73;;;9.20;99.90;;;;;;5027331;28;20053;-65
2022/11/08 09:24:47;;;;;;;18.98;9.45;;;9.60;99.90;;;;;;5027803;28;20045;-69
2022/11/08 09:27:12;;;;;;;16.75;10.25;;;9.90;99.90;;;;;;5027566;28;20028;-66
2022/11/08 09:29:38;;;;;;;19.65;11.55;;;10.00;99.90;;;;;;5030977;28;20037;-67
2022/11/08 09:32:04;;;;;;;21.38;10.63;;;10.30;99.90;;;;;;5029765;28;20106;-67
2022/11/08 09:34:29;;;;;;;20.65;10.23;;;10.60;99.90;;;;;;5029424;28;20021;-64
2022/11/08 09:36:55;;;;;;;25.67;10.02;;;11.00;99.90;;;;;;5028560;28;20029;-67
2022/11/08 09:39:21;;;;;;;19.05;9.77;;;11.40;99.90;;;;;;5027758;28;20028;-65
2022/11/08 09:42:16;;;;;;;13.70;7.20;;;11.70;99.90;;;;;;5027606;28;20045;-66
2022/11/08 09:44:53;;;;;;;10.85;6.50;;;12.00;99.90;;;;;;5037669;28;20049;-68
2022/11/08 09:47:33;;;;;;;15.18;8.70;;;12.40;99.90;;;;;;5027734;28;20098;-67
2022/11/08 09:50:07;;;;;;;13.57;7.50;;;12.70;99.90;;;;;;5041116;28;20047;-70
2022/11/08 09:52:34;;;;;;;14.55;7.50;;;13.10;99.90;;;;;;5041794;28;20108;-69
2022/11/08 09:55:09;;;;;;;15.68;8.20;;;13.30;99.90;;;;;;5016646;28;20466;-66
2022/11/08 09:57:55;;;;;;;14.50;7.80;;;13.50;99.90;;;;;;5027985;28;20036;-67
2022/11/08 10:00:21;;;;;;;14.13;7.03;;;13.70;99.90;;;;;;5027008;28;20124;-67
2022/11/08 10:02:47;;;;;;;13.57;6.90;;;14.00;99.90;;;;;;5028326;28;20033;-65
2022/11/08 10:05:17;;;;;;;11.43;6.20;;;14.50;99.90;;;;;;5027722;28;20030;-70
2022/11/08 10:07:58;;;;;;;10.15;6.53;;;14.50;99.90;;;;;;5028577;28;20032;-64
2022/11/08 10:10:34;;;;;;;;;;;14.60;99.90;;;;;;5026244;28;20030;-70
2022/11/08 10:13:26;;;;;;;7.45;4.72;;;14.60;99.90;;;;;;5034407;28;19917;-68
2022/11/08 10:16:14;;;;;;;7.72;4.32;;;14.60;99.90;;;;;;5036412;28;20026;-65
2022/11/08 10:18:59;;;;;;;8.50;4.75;;;14.60;99.90;;;;;;5046676;28;20466;-69
2022/11/08 10:21:52;;;;;;;6.63;4.10;;;14.80;99.90;;;;;;5047049;28;20053;-67
2022/11/08 10:24:55;;;;;;;6.20;3.20;;;15.00;99.90;;;;;;5027553;28;20120;-68
2022/11/08 10:27:37;;;;;;;8.85;3.03;;;15.20;99.90;;;;;;5026595;28;20033;-65
2022/11/08 10:30:18;;;;;;;6.32;3.28;;;15.20;99.90;;;;;;5028165;28;20163;-66
2022/11/08 10:32:47;;;;;;;5.20;2.40;;;15.40;99.90;;;;;;5026084;28;20111;-67
2022/11/08 10:35:40;;;;;;;5.40;2.10;;;15.80;99.90;;;;;;5027508;28;20060;-75
2022/11/08 10:38:29;;;;;;;3.42;1.80;;;16.00;99.90;;;;;;5027370;28;20030;-65
2022/11/08 10:41:17;;;;;;;4.93;2.50;;;16.10;99.90;;;;;;5028408;28;20025;-69
2022/11/08 10:44:00;;;;;;;3.63;2.00;;;16.10;99.90;;;;;;5028243;28;20029;-66
2022/11/08 10:46:40;;;;;;;9.85;2.30;;;16.00;99.90;;;;;;5028282;28;20033;-67
2022/11/08 10:49:18;;;;;;;2.10;1.45;;;16.20;99.90;;;;;;5031719;28;20083;-66
2022/11/08 10:51:45;;;;;;;3.17;1.45;;;16.50;99.90;;;;;;5030875;28;20033;-70
2022/11/08 10:54:40;;;;;;;2.47;1.08;;;16.90;99.90;;;;;;5031611;28;20103;-68
2022/11/08 10:57:07;;;;;;;5.07;1.00;;;17.00;99.90;;;;;;5031619;28;20029;-68
2022/11/08 10:59:33;;;;;;;4.22;1.00;;;17.00;99.90;;;;;;5030724;28;20049;-71
2022/11/08 11:01:58;;;;;;;4.15;1.10;;;16.80;99.90;;;;;;5029852;28;20072;-66
2022/11/08 11:04:28;;;;;;;3.67;1.27;;;16.70;99.90;;;;;;5030396;28;20048;-68
2022/11/08 11:06:53;;;;;;;8.52;1.10;;;16.70;99.90;;;;;;5030445;28;20493;-68
2022/11/08 11:09:21;;;;;;;4.60;1.00;;;16.60;99.90;;;;;;5030433;28;20120;-69
2022/11/08 11:11:59;;;;;;;2.30;0.70;;;16.50;99.90;;;;;;5031415;28;20053;-66
2022/11/08 11:14:25;;;;;;;2.25;1.00;;;16.40;99.90;;;;;;5030544;28;20382;-67
2022/11/08 11:17:01;;;;;;;2.70;0.98;;;16.30;99.90;;;;;;5030970;28;20026;-67
2022/11/08 11:19:28;;;;;;;2.22;1.17;;;16.20;99.90;;;;;;5030465;28;20060;-68
2022/11/08 11:22:01;;;;;;;3.53;1.38;;;16.20;99.90;;;;;;5028413;28;20558;-70
2022/11/08 11:24:27;;;;;;;4.47;1.10;;;16.10;99.90;;;;;;5024906;28;20040;-68
2022/11/08 11:26:56;;;;;;;3.20;0.98;;;16.20;99.90;;;;;;5029816;28;20034;-69
2022/11/08 11:29:29;;;;;;;2.33;1.02;;;16.10;99.90;;;;;;5029910;28;20022;-67
2022/11/08 11:32:18;;;;;;;2.33;1.15;;;16.20;99.90;;;;;;5030864;28;20470;-69
2022/11/08 11:34:56;;;;;;;3.22;1.00;;;16.30;99.90;;;;;;5030924;28;20112;-66
2022/11/08 11:37:47;;;;;;;2.53;1.20;;;16.30;99.90;;;;;;5029449;28;20423;-66
2022/11/08 11:40:49;;;;;;;3.75;0.90;;;16.40;99.90;;;;;;5026711;28;20120;-66
2022/11/08 11:43:43;;;;;;;3.17;1.02;;;16.50;99.90;;;;;;5017058;28;20912;-72
2022/11/08 11:46:57;;;;;;;3.05;0.98;;;16.60;99.90;;;;;;5047029;28;20045;-66
2022/11/08 11:49:25;;;;;;;1.73;0.93;;;16.70;99.90;;;;;;5013025;28;20112;-64
2022/11/08 11:51:53;;;;;;;2.47;0.98;;;17.00;99.90;;;;;;5029810;28;20056;-67
2022/11/08 11:54:23;;;;;;;2.35;0.77;;;17.30;99.90;;;;;;5025808;28;20045;-71
2022/11/08 11:56:51;;;;;;;3.67;0.73;;;17.40;99.90;;;;;;5030255;28;20071;-66
2022/11/08 11:59:49;;;;;;;3.38;0.88;;;17.50;99.90;;;;;;5029799;28;20451;-70
2022/11/08 12:02:47;;;;;;;0.98;0.70;;;17.40;99.90;;;;;;5029925;28;20144;-64
2022/11/08 12:05:39;;;;;;;3.03;0.77;;;17.40;99.90;;;;;;5029999;28;20034;-65
2022/11/08 12:08:27;;;;;;;2.22;0.80;;;17.70;99.90;;;;;;5030438;28;20087;-67
2022/11/08 12:11:14;;;;;;;1.30;0.70;;;17.60;99.90;;;;;;5030360;28;20102;-67
2022/11/08 12:14:17;;;;;;;2.88;1.00;;;17.40;99.90;;;;;;5029451;28;20060;-66
2022/11/08 12:16:54;;;;;;;2.40;0.90;;;17.10;99.90;;;;;;5029073;28;20038;-65
2022/11/08 12:19:37;;;;;;;2.38;0.80;;;17.00;99.90;;;;;;5029604;28;20465;-71
2022/11/08 12:22:14;;;;;;;1.88;0.73;;;17.00;99.90;;;;;;5029572;28;20052;-64
2022/11/08 12:24:55;;;;;;;2.40;1.10;;;17.00;99.90;;;;;;5029184;28;20041;-64
2022/11/08 12:27:30;;;;;;;2.15;0.95;;;16.90;99.90;;;;;;5029150;28;20033;-71
2022/11/08 12:30:15;;;;;;;2.50;1.10;;;16.90;99.90;;;;;;5029799;28;20110;-65
2022/11/08 12:33:09;;;;;;;1.80;0.85;;;16.80;99.90;;;;;;5009372;28;20025;-66
2022/11/08 12:35:50;;;;;;;3.15;0.80;;;17.10;99.90;;;;;;5024792;28;20060;-66
2022/11/08 12:38:15;;;;;;;;;;;17.40;99.90;;;;;;5030223;28;20100;-65
2022/11/08 12:40:46;;;;;;;4.20;0.80;;;17.50;99.90;;;;;;5028827;28;20028;-66
2022/11/08 12:43:29;;;;;;;3.60;1.00;;;17.70;99.90;;;;;;5029517;28;20381;-65
2022/11/08 12:46:17;;;;;;;2.17;1.00;;;17.90;98.30;;;;;;5029663;28;20025;-66
2022/11/08 12:48:51;;;;;;;1.83;1.00;;;17.90;99.00;;;;;;5028506;28;20033;-65
2022/11/08 12:51:42;;;;;;;3.10;1.08;;;18.00;97.60;;;;;;5027793;28;20056;-65
2022/11/08 12:54:32;;;;;;;2.55;0.85;;;18.30;96.60;;;;;;5029516;28;20040;-65
2022/11/08 12:57:03;;;;;;;4.57;1.15;;;18.40;95.70;;;;;;5028988;28;20041;-67
2022/11/08 12:59:42;;;;;;;4.13;1.13;;;18.40;95.30;;;;;;5028050;28;20064;-66
2022/11/08 13:02:29;;;;;;;2.65;0.90;;;18.30;94.10;;;;;;5028318;28;20044;-64
2022/11/08 13:05:19;;;;;;;2.30;0.98;;;17.90;94.10;;;;;;5028985;28;20041;-66
2022/11/08 13:08:18;;;;;;;3.83;1.10;;;17.60;95.00;;;;;;5028558;28;20033;-66
2022/11/08 13:11:04;;;;;;;5.25;1.30;;;17.40;94.30;;;;;;5028080;28;20838;-68
2022/11/08 13:13:48;;;;;;;2.22;0.82;;;17.30;95.70;;;;;;5026207;28;20091;-66
2022/11/08 13:16:18;;;;;;;4.15;0.80;;;17.20;95.00;;;;;;5027962;28;20045;-65
2022/11/08 13:18:48;;;;;;;1.88;1.05;;;17.10;95.40;;;;;;5028310;28;20268;-69
2022/11/08 13:21:29;;;;;;;4.93;1.00;;;17.00;95.60;;;;;;5028714;28;20080;-64